Time;durP1;ratioP1;P1;durP2;ratioP2;P2;SDS_P1;SDS_P2;PMS_P1;PMS_P2;Temp;Humidity;BMP_temperature;BMP_pressure;BME280_temperature;BME280_humidity;BME280_pressure;Samples;Min_cycle;Max_cycle;Signal;HPM_P1;HPM_P2
2024/01/11 00:01:27;;;;;;;42.03;18.97;;;-5.20;99.90;;;;;;5098668;27;20032;-77
2024/01/11 00:03:52;;;;;;;39.70;19.97;;;-5.20;99.90;;;;;;5113403;27;20042;-77
2024/01/11 00:06:18;;;;;;;39.27;19.97;;;-5.20;99.90;;;;;;5113958;27;20035;-77
2024/01/11 00:08:44;;;;;;;39.23;19.30;;;-5.20;99.90;;;;;;5113190;27;20097;-77
2024/01/11 00:11:10;;;;;;;40.50;19.80;;;-5.20;99.90;;;;;;5113355;27;20027;-77
2024/01/11 00:13:35;;;;;;;40.77;19.73;;;-5.20;99.90;;;;;;5131599;27;20039;-77
2024/01/11 00:16:01;;;;;;;40.83;18.77;;;-5.30;99.90;;;;;;5131828;27;20031;-77
2024/01/11 00:18:27;;;;;;;39.90;20.43;;;-5.30;99.90;;;;;;5131835;27;20123;-77
2024/01/11 00:20:52;;;;;;;41.20;20.87;;;-5.30;99.90;;;;;;5131428;27;20055;-77
2024/01/11 00:23:18;;;;;;;38.20;19.43;;;-5.30;99.90;;;;;;5131401;27;20490;-77
2024/01/11 00:25:43;;;;;;;43.90;20.80;;;-5.30;99.90;;;;;;5131350;27;20115;-77
2024/01/11 00:28:09;;;;;;;43.47;20.80;;;-5.30;99.90;;;;;;5130608;27;20105;-77
2024/01/11 00:30:35;;;;;;;42.13;19.67;;;-5.30;99.90;;;;;;5112477;27;20131;-77
2024/01/11 00:33:00;;;;;;;42.60;20.73;;;-5.30;99.90;;;;;;5112985;27;20046;-77
2024/01/11 00:35:26;;;;;;;41.50;21.17;;;-5.30;99.90;;;;;;5095728;27;20043;-77
2024/01/11 00:37:51;;;;;;;41.50;20.13;;;-5.40;99.90;;;;;;5131224;27;20088;-76
2024/01/11 00:40:17;;;;;;;44.03;21.23;;;-5.40;99.90;;;;;;5106211;28;20028;-77
2024/01/11 00:42:43;;;;;;;46.10;22.03;;;-5.40;99.90;;;;;;5110835;28;20072;-77
2024/01/11 00:45:09;;;;;;;42.30;21.63;;;-5.40;99.90;;;;;;5095447;28;20042;-76
2024/01/11 00:47:34;;;;;;;47.27;22.33;;;-5.40;99.90;;;;;;5102818;28;20042;-77
2024/01/11 00:50:00;;;;;;;43.50;21.40;;;-5.40;99.90;;;;;;5088437;27;20031;-77
2024/01/11 00:52:25;;;;;;;46.93;22.57;;;-5.40;99.90;;;;;;5112772;27;20454;-77
2024/01/11 00:54:51;;;;;;;46.43;20.93;;;-5.40;99.90;;;;;;5112441;27;20043;-77
2024/01/11 00:57:16;;;;;;;48.43;21.53;;;-5.40;99.90;;;;;;5131256;27;20073;-77
2024/01/11 00:59:42;;;;;;;42.97;20.33;;;-5.40;99.90;;;;;;5112927;28;20099;-77
2024/01/11 01:02:08;;;;;;;42.83;21.33;;;-5.40;99.90;;;;;;5131296;28;20035;-76
2024/01/11 01:04:37;;;;;;;42.43;20.87;;;-5.40;99.90;;;;;;5112645;28;20103;-76
2024/01/11 01:07:02;;;;;;;47.67;22.57;;;-5.40;99.90;;;;;;5112596;28;20035;-77
2024/01/11 01:09:28;;;;;;;45.63;22.67;;;-5.40;99.90;;;;;;5112640;28;20490;-77
2024/01/11 01:11:54;;;;;;;45.17;21.47;;;-5.40;99.90;;;;;;5112466;28;20118;-76
2024/01/11 01:14:19;;;;;;;46.13;22.60;;;-5.40;99.90;;;;;;5112816;28;20046;-77
2024/01/11 01:16:45;;;;;;;47.53;22.17;;;-5.40;99.90;;;;;;5112421;28;20043;-76
2024/01/11 01:19:11;;;;;;;44.13;20.93;;;-5.40;99.90;;;;;;5131120;28;20118;-76
2024/01/11 01:21:36;;;;;;;45.77;21.87;;;-5.40;99.90;;;;;;5112466;28;20031;-76
2024/01/11 01:24:02;;;;;;;44.73;21.00;;;-5.40;99.90;;;;;;5112204;28;20041;-76
2024/01/11 01:26:28;;;;;;;47.53;21.67;;;-5.40;99.90;;;;;;5112444;28;20030;-76
2024/01/11 01:28:54;;;;;;;43.57;20.57;;;-5.40;99.90;;;;;;5112195;28;20039;-77
2024/01/11 01:31:21;;;;;;;45.10;21.43;;;-5.40;99.90;;;;;;5112427;28;20627;-76
2024/01/11 01:33:47;;;;;;;46.60;22.03;;;-5.50;99.90;;;;;;5114536;27;20066;-76
2024/01/11 01:36:13;;;;;;;45.10;20.93;;;-5.40;99.90;;;;;;5131150;28;20070;-76
2024/01/11 01:38:38;;;;;;;43.63;20.37;;;-5.40;99.90;;;;;;5110990;28;20058;-76
2024/01/11 01:41:04;;;;;;;44.40;21.03;;;-5.40;99.90;;;;;;5108650;27;20381;-77
2024/01/11 01:43:30;;;;;;;41.47;20.00;;;-5.50;99.90;;;;;;5098979;27;20210;-76
2024/01/11 01:45:56;;;;;;;44.97;20.43;;;-5.50;99.90;;;;;;5112345;28;20118;-77
2024/01/11 01:48:22;;;;;;;43.20;20.93;;;-5.50;99.90;;;;;;5106940;27;20083;-77
2024/01/11 01:50:51;;;;;;;45.97;21.63;;;-5.60;99.90;;;;;;5116025;27;20046;-77
2024/01/11 01:53:21;;;;;;;42.30;20.53;;;-5.60;99.90;;;;;;5106253;27;20130;-77
2024/01/11 01:55:48;;;;;;;44.97;21.20;;;-5.60;99.90;;;;;;5098921;27;20035;-77
2024/01/11 01:58:15;;;;;;;41.00;19.23;;;-5.60;99.90;;;;;;5115754;27;20165;-77
2024/01/11 02:00:41;;;;;;;39.17;19.27;;;-5.60;99.90;;;;;;5115651;27;20611;-76
2024/01/11 02:03:09;;;;;;;46.23;20.80;;;-5.70;99.90;;;;;;5134462;27;20492;-76
2024/01/11 02:05:35;;;;;;;42.03;20.23;;;-5.80;99.90;;;;;;5115491;27;20496;-77
2024/01/11 02:08:03;;;;;;;40.17;19.53;;;-5.80;99.90;;;;;;5098902;27;20047;-77
2024/01/11 02:10:32;;;;;;;41.63;19.83;;;-5.80;99.90;;;;;;5115731;27;20041;-76
2024/01/11 02:12:59;;;;;;;43.93;20.20;;;-5.80;99.90;;;;;;5115598;27;20126;-77
2024/01/11 02:15:24;;;;;;;42.13;19.77;;;-5.80;99.90;;;;;;5090789;28;20066;-77
2024/01/11 02:17:50;;;;;;;42.83;20.70;;;-5.80;99.90;;;;;;5103062;27;20551;-76
2024/01/11 02:20:15;;;;;;;40.13;19.10;;;-5.80;99.90;;;;;;5115577;27;20035;-77
2024/01/11 02:22:49;;;;;;;43.10;20.80;;;-5.90;99.90;;;;;;5133691;27;20110;-76
2024/01/11 02:25:16;;;;;;;44.03;20.80;;;-6.00;99.90;;;;;;5115349;27;20123;-77
2024/01/11 02:27:49;;;;;;;46.40;21.97;;;-6.00;99.90;;;;;;5134095;27;20088;-76
2024/01/11 02:30:16;;;;;;;41.95;21.15;;;-6.00;99.90;;;;;;5101514;28;20043;-77
2024/01/11 02:32:46;;;;;;;41.37;19.73;;;-5.90;99.90;;;;;;5113105;27;20129;-76
2024/01/11 02:35:13;;;;;;;40.37;19.90;;;-6.00;99.90;;;;;;5115606;27;20080;-77
2024/01/11 02:37:39;;;;;;;42.73;20.73;;;-6.00;99.90;;;;;;5115192;27;20043;-76
2024/01/11 02:40:08;;;;;;;43.93;21.17;;;-6.00;99.90;;;;;;5097659;27;20031;-76
2024/01/11 02:42:37;;;;;;;46.00;21.70;;;-6.10;99.90;;;;;;5133957;27;20087;-77
2024/01/11 02:45:03;;;;;;;44.70;20.83;;;-6.00;99.90;;;;;;5114892;27;20031;-76
2024/01/11 02:47:29;;;;;;;44.70;22.00;;;-6.00;99.90;;;;;;5098606;27;20056;-76
2024/01/11 02:49:55;;;;;;;46.07;21.73;;;-6.00;99.90;;;;;;5133110;27;20031;-76
2024/01/11 02:52:23;;;;;;;46.53;21.47;;;-6.00;99.90;;;;;;5115062;27;20057;-76
2024/01/11 02:54:49;;;;;;;44.13;21.13;;;-6.00;99.90;;;;;;5133242;27;20046;-77
2024/01/11 02:57:14;;;;;;;49.37;21.80;;;-6.10;99.90;;;;;;5114934;27;20034;-76
2024/01/11 02:59:40;;;;;;;45.07;21.13;;;-6.10;99.90;;;;;;5133229;27;20031;-77
2024/01/11 03:02:06;;;;;;;42.07;20.73;;;-6.10;99.90;;;;;;5114393;27;20031;-77
2024/01/11 03:04:31;;;;;;;47.43;21.07;;;-6.10;99.90;;;;;;5122910;27;20080;-77
2024/01/11 03:06:57;;;;;;;44.07;20.43;;;-6.10;99.90;;;;;;5114829;27;20031;-77
2024/01/11 03:09:23;;;;;;;48.40;21.33;;;-6.10;99.90;;;;;;5114381;27;20035;-76
2024/01/11 03:11:48;;;;;;;42.80;19.97;;;-6.10;99.90;;;;;;5132590;27;20387;-76
2024/01/11 03:14:14;;;;;;;44.53;21.10;;;-6.10;99.90;;;;;;5114456;27;20043;-77
2024/01/11 03:16:40;;;;;;;42.23;20.47;;;-6.10;99.90;;;;;;5114395;27;20043;-77
2024/01/11 03:19:06;;;;;;;42.67;19.93;;;-6.10;99.90;;;;;;5114390;27;20145;-77
2024/01/11 03:21:31;;;;;;;47.23;21.13;;;-6.10;99.90;;;;;;5113982;27;20497;-76
2024/01/11 03:23:57;;;;;;;46.00;20.87;;;-6.10;99.90;;;;;;5114462;27;20039;-77
2024/01/11 03:26:23;;;;;;;43.40;21.07;;;-6.10;99.90;;;;;;5132961;27;20084;-77
2024/01/11 03:28:49;;;;;;;41.53;19.57;;;-6.10;99.90;;;;;;5114260;27;20050;-76
2024/01/11 03:31:14;;;;;;;44.60;21.87;;;-6.10;99.90;;;;;;5114335;27;20088;-76
2024/01/11 03:33:40;;;;;;;40.30;20.20;;;-6.10;99.90;;;;;;5113808;27;20046;-76
2024/01/11 03:36:10;;;;;;;46.90;21.53;;;-6.10;99.90;;;;;;5114245;27;20386;-76
2024/01/11 03:38:36;;;;;;;46.17;20.93;;;-6.10;99.90;;;;;;5113435;27;20045;-77
2024/01/11 03:41:07;;;;;;;44.77;20.70;;;-6.00;99.90;;;;;;5114368;27;20035;-76
2024/01/11 03:43:32;;;;;;;45.93;21.70;;;-5.10;99.90;;;;;;5131900;27;20118;-76
2024/01/11 03:45:58;;;;;;;43.30;20.23;;;-6.00;99.90;;;;;;5104803;27;20035;-76
2024/01/11 03:48:23;;;;;;;42.47;21.00;;;-6.00;99.90;;;;;;5113693;27;20042;-76
2024/01/11 03:50:49;;;;;;;48.67;21.73;;;-6.00;99.90;;;;;;5132263;27;20521;-76
2024/01/11 03:53:15;;;;;;;40.93;19.20;;;-6.00;99.90;;;;;;5113692;27;20117;-76
2024/01/11 03:55:40;;;;;;;44.07;20.83;;;-5.90;99.90;;;;;;5113409;27;20056;-77
2024/01/11 03:58:06;;;;;;;44.87;20.90;;;-5.90;99.90;;;;;;5113626;27;20503;-77
2024/01/11 04:00:33;;;;;;;44.33;20.47;;;-6.00;99.90;;;;;;5113652;27;20039;-76
2024/01/11 04:02:59;;;;;;;43.20;19.70;;;-6.00;99.90;;;;;;5130410;27;20053;-77
2024/01/11 04:05:24;;;;;;;43.10;19.60;;;-5.90;99.90;;;;;;5112475;27;20372;-77
2024/01/11 04:07:50;;;;;;;47.53;21.87;;;-6.00;99.90;;;;;;5113052;27;20406;-77
2024/01/11 04:10:18;;;;;;;47.00;21.13;;;-6.00;99.90;;;;;;5131968;27;20035;-76
2024/01/11 04:12:43;;;;;;;46.17;21.83;;;-6.00;99.90;;;;;;5112856;27;20042;-76
2024/01/11 04:15:11;;;;;;;43.37;20.63;;;-6.00;99.90;;;;;;5096532;27;20027;-77
2024/01/11 04:17:39;;;;;;;46.43;21.73;;;-5.40;99.90;;;;;;5112571;27;20042;-77
2024/01/11 04:20:05;;;;;;;44.13;21.30;;;-6.00;99.90;;;;;;5113171;27;20114;-77
2024/01/11 04:22:31;;;;;;;45.57;21.03;;;-5.90;99.90;;;;;;5112985;27;20073;-76
2024/01/11 04:24:56;;;;;;;44.33;21.20;;;-5.90;99.90;;;;;;5113162;27;20039;-76
2024/01/11 04:27:22;;;;;;;45.33;20.70;;;-5.80;99.90;;;;;;5112993;27;20031;-76
2024/01/11 04:29:48;;;;;;;48.87;22.33;;;-5.90;99.90;;;;;;5131581;27;20038;-76
2024/01/11 04:32:13;;;;;;;45.87;21.03;;;-5.80;99.90;;;;;;5130960;27;20074;-76
2024/01/11 04:34:39;;;;;;;46.43;21.37;;;-5.70;99.90;;;;;;5103987;28;20142;-76
2024/01/11 04:37:06;;;;;;;47.30;22.03;;;-5.70;99.90;;;;;;5113090;27;20042;-76
2024/01/11 04:39:32;;;;;;;46.10;22.07;;;-5.60;99.90;;;;;;5113272;27;20066;-76
2024/01/11 04:41:57;;;;;;;45.50;22.07;;;-5.50;99.90;;;;;;5131181;27;20067;-76
2024/01/11 04:44:23;;;;;;;46.03;21.77;;;-5.50;99.90;;;;;;5131465;27;20528;-76
2024/01/11 04:46:49;;;;;;;47.80;21.83;;;-5.40;99.90;;;;;;5130750;27;20027;-76
2024/01/11 04:49:14;;;;;;;48.17;22.50;;;-5.40;99.90;;;;;;5131457;27;20133;-75
2024/01/11 04:51:40;;;;;;;45.83;22.10;;;-5.30;99.90;;;;;;5131314;27;20042;-76
2024/01/11 04:54:05;;;;;;;50.77;22.63;;;-5.20;99.90;;;;;;5112826;27;20046;-75
2024/01/11 04:56:31;;;;;;;47.63;21.60;;;-5.20;99.90;;;;;;5131278;27;20081;-76
2024/01/11 04:58:58;;;;;;;49.03;23.30;;;-5.10;99.90;;;;;;5130922;27;20575;-75
2024/01/11 05:01:24;;;;;;;50.63;22.47;;;-5.10;99.90;;;;;;5131062;28;20692;-75
2024/01/11 05:03:49;;;;;;;50.00;23.27;;;-5.00;99.90;;;;;;5130953;27;20031;-76
2024/01/11 05:06:19;;;;;;;51.40;22.83;;;-4.90;99.90;;;;;;5131141;28;20035;-76
2024/01/11 05:08:47;;;;;;;49.03;22.50;;;-4.90;99.90;;;;;;5112822;28;20443;-75
2024/01/11 05:11:20;;;;;;;47.70;22.17;;;-4.80;99.90;;;;;;5130707;28;20122;-75
2024/01/11 05:13:47;;;;;;;51.00;23.42;;;-4.70;99.90;;;;;;5112526;28;20644;-75
2024/01/11 05:16:29;;;;;;;53.77;23.63;;;-4.70;99.90;;;;;;5114062;27;20543;-75
2024/01/11 05:18:56;;;;;;;47.03;22.60;;;-4.60;99.90;;;;;;5135076;27;20045;-75
2024/01/11 05:21:22;;;;;;;49.97;22.93;;;-4.60;99.90;;;;;;5116980;27;20402;-75
2024/01/11 05:23:49;;;;;;;48.23;22.83;;;-4.60;99.90;;;;;;5135021;27;20299;-75
2024/01/11 05:26:16;;;;;;;51.47;23.67;;;-4.50;99.90;;;;;;5116356;27;20088;-75
2024/01/11 05:28:42;;;;;;;45.07;22.27;;;-4.50;99.90;;;;;;5135039;27;20057;-75
2024/01/11 05:31:10;;;;;;;49.37;22.70;;;-4.40;99.90;;;;;;5116186;27;20035;-75
2024/01/11 05:33:36;;;;;;;48.43;22.83;;;-4.40;99.90;;;;;;5116317;27;20120;-75
2024/01/11 05:36:02;;;;;;;52.97;23.00;;;-4.40;99.90;;;;;;5135137;27;20066;-75
2024/01/11 05:38:28;;;;;;;49.63;23.70;;;-4.30;99.90;;;;;;5116434;27;20083;-75
2024/01/11 05:40:53;;;;;;;49.10;22.97;;;-4.30;99.90;;;;;;5115955;27;20032;-75
2024/01/11 05:43:19;;;;;;;49.33;22.00;;;-4.30;99.90;;;;;;5116421;27;20110;-75
2024/01/11 05:45:44;;;;;;;48.13;22.80;;;-4.20;99.90;;;;;;5134460;27;20031;-75
2024/01/11 05:48:10;;;;;;;49.83;23.50;;;-4.20;99.90;;;;;;5116469;27;20080;-75
2024/01/11 05:50:36;;;;;;;49.50;23.73;;;-4.20;99.90;;;;;;5115885;27;20191;-75
2024/01/11 05:53:02;;;;;;;50.90;23.60;;;-4.10;99.90;;;;;;5134343;27;20068;-75
2024/01/11 05:55:28;;;;;;;53.80;24.20;;;-4.10;99.90;;;;;;5133742;27;20123;-75
2024/01/11 05:57:54;;;;;;;54.00;23.40;;;-4.00;99.90;;;;;;5116147;27;20042;-75
2024/01/11 06:00:20;;;;;;;47.40;22.77;;;-4.00;99.90;;;;;;5134652;27;20413;-75
2024/01/11 06:02:45;;;;;;;51.23;22.07;;;-4.00;99.90;;;;;;5115642;27;20039;-75
2024/01/11 06:05:15;;;;;;;51.70;24.00;;;-3.90;99.90;;;;;;5102092;28;20138;-75
2024/01/11 06:07:41;;;;;;;50.33;23.47;;;-3.90;99.90;;;;;;5113348;27;20061;-75
2024/01/11 06:10:08;;;;;;;48.03;22.87;;;-3.90;99.90;;;;;;5114711;28;20039;-75
2024/01/11 06:12:34;;;;;;;51.90;23.67;;;-3.90;99.90;;;;;;5114662;28;20113;-75
2024/01/11 06:15:00;;;;;;;45.93;22.30;;;-3.90;99.90;;;;;;5123603;27;20088;-75
2024/01/11 06:17:26;;;;;;;51.23;24.00;;;-3.80;99.90;;;;;;5114533;28;20035;-75
2024/01/11 06:19:52;;;;;;;49.63;23.67;;;-3.80;99.90;;;;;;5114861;28;20039;-75
2024/01/11 06:22:18;;;;;;;54.43;24.37;;;-3.80;99.90;;;;;;5114476;28;20084;-75
2024/01/11 06:24:43;;;;;;;48.37;23.17;;;-3.70;99.90;;;;;;5132456;27;20092;-75
2024/01/11 06:27:09;;;;;;;52.67;23.57;;;-3.70;99.90;;;;;;5113549;28;20425;-75
2024/01/11 06:29:35;;;;;;;54.60;23.87;;;-3.70;99.90;;;;;;5124719;28;20061;-75
2024/01/11 06:32:01;;;;;;;53.20;24.20;;;-3.60;99.90;;;;;;5114592;28;20046;-75
2024/01/11 06:34:26;;;;;;;52.43;24.53;;;-3.60;99.90;;;;;;5132671;27;20087;-75
2024/01/11 06:36:53;;;;;;;53.30;24.27;;;-3.60;99.90;;;;;;5113837;28;20068;-75
2024/01/11 06:39:18;;;;;;;52.87;23.23;;;-3.60;99.90;;;;;;5114197;28;20073;-75
2024/01/11 06:41:44;;;;;;;50.47;22.57;;;-3.60;99.90;;;;;;5113704;28;20545;-75
2024/01/11 06:44:10;;;;;;;49.03;23.97;;;-3.50;99.90;;;;;;5113803;28;20360;-75
2024/01/11 06:46:36;;;;;;;60.03;27.20;;;-3.50;99.90;;;;;;5132155;28;20062;-74
2024/01/11 06:49:02;;;;;;;56.57;27.13;;;-3.50;99.90;;;;;;5113209;28;20046;-74
2024/01/11 06:51:27;;;;;;;51.87;24.60;;;-3.40;99.90;;;;;;5113053;28;20128;-75
2024/01/11 06:53:53;;;;;;;53.90;26.57;;;-3.40;99.90;;;;;;5112087;27;20080;-75
2024/01/11 06:56:19;;;;;;;53.53;24.73;;;-3.40;99.90;;;;;;5132424;28;20034;-75
2024/01/11 06:58:46;;;;;;;54.23;24.70;;;-3.30;99.90;;;;;;5103585;28;20034;-75
2024/01/11 07:01:12;;;;;;;48.63;23.10;;;-3.30;99.90;;;;;;5113847;28;20059;-74
2024/01/11 07:03:38;;;;;;;49.67;23.97;;;-3.30;99.90;;;;;;5113477;27;20084;-74
2024/01/11 07:06:04;;;;;;;50.80;24.10;;;-3.20;99.90;;;;;;5113871;28;20037;-74
2024/01/11 07:08:30;;;;;;;45.77;22.20;;;-3.30;99.90;;;;;;5132198;28;20110;-75
2024/01/11 07:10:56;;;;;;;50.37;22.90;;;-3.20;99.90;;;;;;5091953;27;1157134;-75
2024/01/11 07:13:22;;;;;;;50.20;23.60;;;-3.20;99.90;;;;;;5097719;27;20043;-75
2024/01/11 07:15:48;;;;;;;51.27;23.63;;;-3.20;99.90;;;;;;5132966;27;20039;-74
2024/01/11 07:18:14;;;;;;;53.63;24.50;;;-3.20;99.90;;;;;;5114713;27;20367;-74
2024/01/11 07:20:40;;;;;;;54.40;25.00;;;-3.30;99.90;;;;;;5114077;27;20039;-75
2024/01/11 07:23:06;;;;;;;52.97;24.83;;;-3.20;99.90;;;;;;5097210;27;20031;-75
2024/01/11 07:25:32;;;;;;;55.67;24.83;;;-3.20;99.90;;;;;;5114408;27;20038;-74
2024/01/11 07:27:58;;;;;;;52.87;25.20;;;-3.10;99.90;;;;;;5114400;27;20104;-75
2024/01/11 07:30:24;;;;;;;52.90;24.93;;;-3.10;99.90;;;;;;5114120;27;20085;-75
2024/01/11 07:32:49;;;;;;;51.57;23.83;;;-3.10;99.90;;;;;;5114046;27;20475;-74
2024/01/11 07:35:15;;;;;;;62.93;28.77;;;-3.10;99.90;;;;;;5113726;27;20035;-74
2024/01/11 07:37:41;;;;;;;57.23;27.67;;;-3.00;99.90;;;;;;5120935;27;20050;-74
2024/01/11 07:40:10;;;;;;;52.67;25.77;;;-3.00;99.90;;;;;;5109224;27;20046;-74
2024/01/11 07:42:39;;;;;;;49.90;25.00;;;-3.00;99.90;;;;;;5130380;27;20057;-74
2024/01/11 07:45:06;;;;;;;50.77;24.63;;;-3.00;99.90;;;;;;5112067;27;20031;-74
2024/01/11 07:47:32;;;;;;;51.13;22.97;;;-2.90;99.90;;;;;;5112467;27;20328;-74
2024/01/11 07:49:58;;;;;;;49.53;23.70;;;-2.90;99.90;;;;;;5111815;27;20038;-74
2024/01/11 07:52:26;;;;;;;45.03;21.77;;;-2.90;99.90;;;;;;5111433;27;20043;-74
2024/01/11 07:54:54;;;;;;;54.47;22.97;;;-2.90;99.90;;;;;;5129213;27;20133;-74
2024/01/11 07:57:19;;;;;;;46.20;21.83;;;-2.80;99.90;;;;;;5111847;27;20495;-74
2024/01/11 07:59:45;;;;;;;46.67;22.07;;;-2.80;99.90;;;;;;5111416;27;20039;-74
2024/01/11 08:02:10;;;;;;;51.13;23.37;;;-2.70;99.90;;;;;;5130016;27;20618;-74
2024/01/11 08:04:38;;;;;;;50.13;22.93;;;-2.70;99.90;;;;;;5111327;27;20077;-74
2024/01/11 08:07:04;;;;;;;60.40;32.77;;;-2.70;99.90;;;;;;5111805;27;20546;-74
2024/01/11 08:09:30;;;;;;;49.73;23.67;;;-2.60;99.90;;;;;;5095767;27;20110;-74
2024/01/11 08:11:55;;;;;;;48.10;22.77;;;-2.60;99.90;;;;;;5112232;27;20074;-74
2024/01/11 08:14:21;;;;;;;48.23;22.83;;;-2.60;99.90;;;;;;5124989;27;20142;-74
2024/01/11 08:16:46;;;;;;;45.10;22.17;;;-2.60;99.90;;;;;;5129158;27;20043;-73
2024/01/11 08:19:16;;;;;;;47.73;22.80;;;-2.50;99.90;;;;;;5129278;27;20045;-73
2024/01/11 08:21:42;;;;;;;49.23;23.30;;;-2.30;99.90;;;;;;5111047;27;20043;-74
2024/01/11 08:24:08;;;;;;;52.17;22.93;;;-2.40;99.90;;;;;;5095689;27;20027;-74
2024/01/11 08:26:34;;;;;;;51.90;23.40;;;-2.40;99.90;;;;;;5113340;27;20426;-73
2024/01/11 08:28:59;;;;;;;51.27;24.03;;;-2.40;99.90;;;;;;5113170;27;20107;-73
2024/01/11 08:31:25;;;;;;;51.17;23.47;;;-2.40;99.90;;;;;;5113309;27;20039;-74
2024/01/11 08:33:51;;;;;;;51.97;24.33;;;-2.30;99.90;;;;;;5112731;27;20417;-73
2024/01/11 08:36:16;;;;;;;50.80;22.97;;;-2.20;99.90;;;;;;5113274;27;20114;-74
2024/01/11 08:38:42;;;;;;;50.20;22.60;;;-2.20;99.90;;;;;;5131656;27;20114;-73
2024/01/11 08:41:08;;;;;;;49.93;23.80;;;-2.20;99.90;;;;;;5113155;27;20122;-73
2024/01/11 08:43:34;;;;;;;50.33;22.63;;;-2.10;99.90;;;;;;5112960;27;20549;-73
2024/01/11 08:45:59;;;;;;;50.70;23.00;;;-2.10;99.90;;;;;;5131760;27;20506;-73
2024/01/11 08:48:25;;;;;;;51.00;22.77;;;-2.00;99.90;;;;;;5131685;27;20031;-73
2024/01/11 08:50:51;;;;;;;47.87;22.33;;;-2.00;99.90;;;;;;5113093;27;20409;-73
2024/01/11 08:53:17;;;;;;;48.23;23.13;;;-1.90;99.90;;;;;;5112895;28;20035;-73
2024/01/11 08:55:43;;;;;;;50.10;22.13;;;-1.90;99.90;;;;;;5131248;27;20043;-73
2024/01/11 08:58:10;;;;;;;48.93;21.93;;;-1.80;99.90;;;;;;5112965;27;20478;-73
2024/01/11 09:00:36;;;;;;;47.30;22.03;;;-1.70;99.90;;;;;;5112635;28;20035;-73
2024/01/11 09:03:03;;;;;;;46.67;21.67;;;-1.70;99.90;;;;;;5131216;28;20102;-73
2024/01/11 09:05:28;;;;;;;46.83;21.10;;;-1.70;99.90;;;;;;5112617;28;20035;-73
2024/01/11 09:07:54;;;;;;;47.30;21.70;;;-1.60;99.90;;;;;;5112703;28;20035;-73
2024/01/11 09:10:20;;;;;;;47.17;22.33;;;-1.50;99.90;;;;;;5098354;28;20065;-73
2024/01/11 09:12:46;;;;;;;46.50;21.83;;;-1.50;99.90;;;;;;5111200;28;20047;-73
2024/01/11 09:15:12;;;;;;;49.33;21.40;;;-1.50;99.90;;;;;;5112720;28;20039;-73
2024/01/11 09:17:38;;;;;;;47.70;21.33;;;-1.40;99.90;;;;;;5130824;28;20539;-73
2024/01/11 09:20:04;;;;;;;46.27;21.70;;;-1.40;99.90;;;;;;5112988;28;20027;-73
2024/01/11 09:22:30;;;;;;;43.93;21.43;;;-1.40;99.90;;;;;;5112606;28;20035;-73
2024/01/11 09:24:56;;;;;;;41.83;20.60;;;-1.30;99.90;;;;;;5130976;28;20122;-73
2024/01/11 09:27:22;;;;;;;42.87;20.67;;;-1.30;99.90;;;;;;5112651;28;20069;-73
2024/01/11 09:29:47;;;;;;;42.50;20.17;;;-1.30;99.90;;;;;;5112727;28;20043;-73
2024/01/11 09:32:13;;;;;;;42.80;21.53;;;-1.20;99.90;;;;;;5113060;28;20051;-73
2024/01/11 09:34:39;;;;;;;45.80;21.33;;;-1.20;99.90;;;;;;5130828;27;20398;-73
2024/01/11 09:37:05;;;;;;;42.17;19.90;;;-1.10;99.90;;;;;;5111714;28;20076;-73
2024/01/11 09:39:31;;;;;;;41.47;20.17;;;-1.00;99.90;;;;;;5112542;28;20104;-72
2024/01/11 09:42:09;;;;;;;44.70;20.73;;;-1.00;99.90;;;;;;5112675;28;20054;-73
2024/01/11 09:44:37;;;;;;;47.27;22.60;;;-0.90;99.90;;;;;;5130764;28;20031;-73
2024/01/11 09:47:03;;;;;;;42.23;21.47;;;-0.90;99.90;;;;;;5131231;28;20039;-73
2024/01/11 09:49:30;;;;;;;40.80;20.47;;;-0.80;99.90;;;;;;5112658;28;20517;-73
2024/01/11 09:51:56;;;;;;;42.03;21.43;;;-0.80;99.90;;;;;;5120110;28;20156;-73
2024/01/11 09:54:25;;;;;;;45.13;21.37;;;-0.70;99.90;;;;;;5111688;28;20057;-73
2024/01/11 09:56:51;;;;;;;42.73;21.53;;;-0.70;99.90;;;;;;5112335;28;20070;-73
2024/01/11 09:59:19;;;;;;;39.67;20.67;;;-0.70;99.90;;;;;;5112460;28;20039;-73
2024/01/11 10:01:45;;;;;;;43.67;21.50;;;-0.60;99.90;;;;;;5112844;27;20067;-73
2024/01/11 10:04:14;;;;;;;44.70;20.93;;;-0.60;99.90;;;;;;5134523;27;20049;-73
2024/01/11 10:06:41;;;;;;;39.67;19.50;;;-0.60;99.90;;;;;;5135136;27;20087;-73
2024/01/11 10:09:07;;;;;;;42.27;20.33;;;-0.60;99.90;;;;;;5116212;27;20060;-73
2024/01/11 10:11:34;;;;;;;39.50;19.87;;;-0.50;99.90;;;;;;5098985;27;20035;-73
2024/01/11 10:14:01;;;;;;;43.50;21.73;;;-0.50;99.90;;;;;;5115793;27;20413;-73
2024/01/11 10:16:28;;;;;;;39.23;19.93;;;-0.50;99.90;;;;;;5116385;27;20457;-73
2024/01/11 10:18:55;;;;;;;38.80;19.00;;;-0.50;99.90;;;;;;5134059;27;20043;-73
2024/01/11 10:21:21;;;;;;;41.00;20.50;;;-0.40;99.90;;;;;;5114155;28;20035;-72
2024/01/11 10:23:46;;;;;;;38.83;19.67;;;-0.40;99.90;;;;;;5131788;27;20550;-73
2024/01/11 10:26:15;;;;;;;39.03;20.30;;;-0.40;99.90;;;;;;5134312;27;20035;-72
2024/01/11 10:28:45;;;;;;;39.90;20.60;;;-0.40;99.90;;;;;;5134317;27;20125;-72
2024/01/11 10:31:11;;;;;;;37.53;19.80;;;-0.30;99.90;;;;;;5134345;27;20039;-73
2024/01/11 10:33:37;;;;;;;39.97;20.27;;;-0.30;99.90;;;;;;5115228;27;20105;-73
2024/01/11 10:36:04;;;;;;;38.47;19.70;;;-0.30;99.90;;;;;;5115799;27;20035;-73
2024/01/11 10:38:38;;;;;;;41.67;19.80;;;-0.30;99.90;;;;;;5115830;27;20562;-73
2024/01/11 10:41:06;;;;;;;37.17;18.73;;;-0.20;99.90;;;;;;5107540;27;20514;-73
2024/01/11 10:43:32;;;;;;;36.47;18.83;;;-0.20;99.90;;;;;;5103082;27;20035;-74
2024/01/11 10:46:04;;;;;;;38.00;19.07;;;-0.20;99.90;;;;;;5115591;27;20406;-74
2024/01/11 10:48:34;;;;;;;41.33;19.83;;;-0.20;99.90;;;;;;5115781;27;20039;-74
2024/01/11 10:51:08;;;;;;;40.43;19.27;;;-0.20;99.90;;;;;;5133481;27;20068;-74
2024/01/11 10:53:47;;;;;;;;;;;-0.10;99.90;;;;;;5129121;27;20039;-74
2024/01/11 10:56:16;;;;;;;35.63;18.73;;;-0.10;99.90;;;;;;5115833;27;20332;-74
2024/01/11 10:58:43;;;;;;;36.90;19.23;;;-0.10;99.90;;;;;;5133445;27;20057;-74
2024/01/11 11:01:12;;;;;;;39.03;19.30;;;0.00;99.90;;;;;;5134092;27;20069;-74
2024/01/11 11:03:38;;;;;;;36.87;19.80;;;0.00;99.90;;;;;;5133392;27;20039;-75
2024/01/11 11:06:08;;;;;;;33.20;18.23;;;0.00;99.90;;;;;;5106965;27;20046;-74
2024/01/11 11:08:34;;;;;;;37.60;18.53;;;0.10;99.90;;;;;;5115437;27;20035;-74
2024/01/11 11:11:03;;;;;;;38.73;19.93;;;0.10;99.90;;;;;;5114905;27;20031;-74
2024/01/11 11:13:29;;;;;;;39.77;18.80;;;0.20;99.90;;;;;;5113446;27;20110;-73
2024/01/11 11:15:57;;;;;;;38.60;19.67;;;0.20;99.90;;;;;;5133469;27;20168;-73
2024/01/11 11:18:24;;;;;;;37.70;19.17;;;0.20;99.90;;;;;;5133188;27;20355;-73
2024/01/11 11:20:50;;;;;;;36.40;19.07;;;0.30;99.90;;;;;;5133472;27;20031;-73
2024/01/11 11:23:17;;;;;;;37.30;18.53;;;0.30;99.90;;;;;;5097802;27;20428;-73
2024/01/11 11:25:46;;;;;;;44.47;23.03;;;0.30;99.90;;;;;;5133058;27;20114;-73
2024/01/11 11:28:13;;;;;;;42.80;21.83;;;0.40;99.90;;;;;;5115011;27;20402;-73
2024/01/11 11:30:44;;;;;;;38.27;20.00;;;0.40;99.90;;;;;;5114233;27;20051;-73
2024/01/11 11:33:20;;;;;;;37.03;19.70;;;0.40;99.90;;;;;;5128918;27;20405;-73
2024/01/11 11:35:46;;;;;;;41.37;20.70;;;0.40;99.90;;;;;;5114237;27;20031;-73
2024/01/11 11:38:21;;;;;;;41.80;21.67;;;0.50;99.90;;;;;;5132853;27;20431;-73
2024/01/11 11:40:48;;;;;;;37.27;20.13;;;0.50;99.90;;;;;;5113894;27;20530;-73
2024/01/11 11:43:17;;;;;;;39.67;20.10;;;0.50;99.90;;;;;;5114259;27;20035;-72
2024/01/11 11:45:43;;;;;;;39.07;19.87;;;0.50;99.90;;;;;;5132509;27;20057;-72
2024/01/11 11:48:32;;;;;;;42.13;20.07;;;0.60;99.90;;;;;;5132797;27;20035;-72
2024/01/11 11:51:11;;;;;;;36.00;19.43;;;0.60;99.90;;;;;;5132267;27;20092;-72
2024/01/11 11:53:38;;;;;;;36.33;18.93;;;0.60;99.90;;;;;;5131688;27;20100;-71
2024/01/11 11:56:04;;;;;;;39.13;20.00;;;0.70;99.90;;;;;;5103551;28;20032;-72
2024/01/11 11:58:32;;;;;;;37.70;19.47;;;0.80;99.90;;;;;;5097831;28;20039;-72
2024/01/11 12:00:59;;;;;;;38.43;19.50;;;0.70;99.90;;;;;;5107199;27;20031;-72
2024/01/11 12:03:37;;;;;;;39.87;19.10;;;0.70;99.90;;;;;;5110661;27;20079;-72
2024/01/11 12:06:03;;;;;;;36.13;19.00;;;0.70;99.90;;;;;;5111345;27;20499;-72
2024/01/11 12:08:29;;;;;;;38.70;20.37;;;0.70;99.90;;;;;;5094327;27;20197;-73
2024/01/11 12:10:55;;;;;;;39.87;20.10;;;0.70;99.90;;;;;;5129860;27;20117;-74
2024/01/11 12:13:21;;;;;;;38.90;19.87;;;0.70;99.90;;;;;;5111123;27;20035;-74
2024/01/11 12:15:47;;;;;;;34.57;18.07;;;0.70;99.90;;;;;;5080403;27;20502;-75
2024/01/11 12:18:12;;;;;;;36.53;19.93;;;0.70;99.90;;;;;;5131887;27;20043;-75
2024/01/11 12:20:38;;;;;;;32.73;18.50;;;0.70;99.90;;;;;;5131920;27;20477;-77
2024/01/11 12:23:04;;;;;;;36.00;18.73;;;0.70;99.90;;;;;;5102087;28;20452;-77
2024/01/11 12:25:31;;;;;;;34.77;18.07;;;0.70;99.90;;;;;;5108329;27;20054;-76